Mobile Downtown Airport
KBFM : now visible

Airfield :











YOU CAN JOIN US ON...

 
LOGIN :

Register | Disclaimer

   EN    FR    IT 

 









Legend :    VFR   Marginal VFR   IFR   Intensive IFR   Very Intensive IFR
Visi :
Ceiling :
>= 8 km
>= 3000ft
5 to 8 km
1000 to 3000 ft
1500m to 5 km
500 to 1000 ft
800 to 1500m
200 to 500 ft
< 800m
< 200 ft
Symbols :   Thunderstorms  Fog  Heavy snow  Heavy precipitations  Wind > 20 kt






- Airport Elevation : 26 ft


KBFM - Mobile Downtown

CURRENT METAR :
  • 110453Z AUTO 00000KT 10SM CLR 20/19 A3004 RMK AO2 SLP172 T02000194

EXPIRED METARs :
  • 110353Z AUTO 00000KT 10SM CLR 21/19 A3005 RMK AO2 SLP177 T02060194
  • 110253Z AUTO 00000KT 10SM CLR 22/20 A3005 RMK AO2 SLP176 T02170200 51018

TAF KBFM
Valid from the 11 at 00:00 until the 12 at 00:00 UTC


102342Z 1100/1124 19003KT P6SM BKN050
FM110300 17004KT P6SM BKN015
FM110600 VRB03KT P6SM BKN009
FM111000 00000KT P6SM BKN006
PROB30 1112/1118 4SM TSRA BKN006CB
FM111800 13007KT P6SM VCTS OVC030CB
KZHU FIR / North America



MET'MAP, your aeronautical weather chart ! - Copyright ORBIFLY December 2007 - Disclaimer

ORBIFLY MET'MAP TEAM :

Programming & Development : Alexandra Zaïnal
Concept & original design : Baudouin d'Aumeries
Assistance for programming : Marc-Olivier Méhu
Technical & hardware support : Manuel Goepfert

Contact : metmap@orbifly.com




SOURCES & CREDITS :

   NOAA       Earth
Advisory